createdAt,value
2017-08-23T00:01:49.855Z,24.10
2017-08-23T00:04:17.385Z,24.10
2017-08-23T00:06:44.897Z,24.08
2017-08-23T00:09:12.448Z,24.02
2017-08-23T00:11:39.964Z,24.07
2017-08-23T00:14:07.481Z,24.05
2017-08-23T00:16:35.016Z,24.05
2017-08-23T00:19:02.521Z,24.04
2017-08-23T00:21:30.081Z,24.03
2017-08-23T00:23:57.591Z,24.02
2017-08-23T00:26:25.133Z,24.00
2017-08-23T00:28:52.715Z,24.00
2017-08-23T00:31:20.276Z,24.00
2017-08-23T00:33:47.790Z,23.94
2017-08-23T00:36:15.357Z,23.97
2017-08-23T00:38:42.921Z,23.96
2017-08-23T00:41:10.420Z,23.95
2017-08-23T00:43:37.917Z,23.94
2017-08-23T00:46:05.450Z,23.94
2017-08-23T00:48:32.945Z,23.91
2017-08-23T00:51:00.476Z,23.90
2017-08-23T00:53:27.973Z,23.88
2017-08-23T00:55:55.516Z,23.86
2017-08-23T00:58:23.065Z,23.86
2017-08-23T01:00:50.581Z,23.87
2017-08-23T01:03:18.129Z,23.87
2017-08-23T01:05:45.636Z,23.91
2017-08-23T01:08:13.132Z,23.86
2017-08-23T01:10:40.673Z,23.82
2017-08-23T01:13:08.174Z,23.80
2017-08-23T01:15:35.717Z,23.76
2017-08-23T01:18:03.213Z,23.72
2017-08-23T01:20:30.796Z,23.63
2017-08-23T01:22:58.302Z,23.56
2017-08-23T01:25:25.811Z,23.57
2017-08-23T01:27:53.395Z,23.54
2017-08-23T01:30:20.895Z,23.51
2017-08-23T01:32:48.496Z,23.45
2017-08-23T01:35:16.045Z,23.44
2017-08-23T01:37:43.543Z,23.43
2017-08-23T01:40:11.043Z,23.43
2017-08-23T01:42:38.603Z,23.39
2017-08-23T01:45:06.133Z,23.31
2017-08-23T01:47:33.626Z,23.34
2017-08-23T01:50:01.169Z,23.31
2017-08-23T01:52:28.669Z,23.29
2017-08-23T01:54:56.244Z,23.31
2017-08-23T01:57:23.845Z,23.30
2017-08-23T01:59:51.395Z,23.28
2017-08-23T02:02:18.959Z,23.27
2017-08-23T02:04:46.458Z,23.23
2017-08-23T02:07:13.958Z,23.20
2017-08-23T02:09:41.505Z,23.17
2017-08-23T02:12:09.052Z,23.15
2017-08-23T02:14:36.569Z,23.15
2017-08-23T02:17:04.072Z,23.17
2017-08-23T02:19:31.630Z,23.16
2017-08-23T02:21:59.130Z,23.17
2017-08-23T02:24:26.655Z,23.18
2017-08-23T02:26:54.194Z,23.11
2017-08-23T02:29:21.689Z,23.16
2017-08-23T02:31:49.269Z,23.09
2017-08-23T02:34:16.814Z,23.13
2017-08-23T02:36:44.317Z,23.12
2017-08-23T02:39:11.876Z,23.07
2017-08-23T02:41:39.389Z,23.10
2017-08-23T02:44:06.894Z,23.12
2017-08-23T02:46:34.434Z,23.10
2017-08-23T02:49:01.942Z,23.11
2017-08-23T02:51:29.481Z,23.09
2017-08-23T02:53:56.993Z,23.04
2017-08-23T02:56:24.599Z,23.03
2017-08-23T02:58:52.097Z,23.07
2017-08-23T03:01:19.621Z,22.96
2017-08-23T03:03:47.177Z,23.02
2017-08-23T03:06:14.697Z,23.01
2017-08-23T03:08:42.235Z,23.03
2017-08-23T03:11:09.782Z,23.00
2017-08-23T03:13:37.297Z,22.94
2017-08-23T03:16:04.805Z,22.89
2017-08-23T03:18:32.410Z,22.89
2017-08-23T03:20:59.921Z,22.89
2017-08-23T03:23:27.417Z,22.89
2017-08-23T03:25:54.983Z,22.88
2017-08-23T03:28:22.671Z,22.85
2017-08-23T03:30:50.182Z,22.82
2017-08-23T03:33:17.827Z,22.85
2017-08-23T03:35:45.441Z,22.83
2017-08-23T03:38:13.034Z,22.86
2017-08-23T03:40:40.541Z,22.86
2017-08-23T03:43:08.114Z,22.85
2017-08-23T03:45:35.615Z,22.83
2017-08-23T03:48:03.153Z,22.81
2017-08-23T03:50:30.658Z,22.81
2017-08-23T03:52:58.217Z,22.77
2017-08-23T03:55:25.752Z,22.77
2017-08-23T03:57:53.287Z,22.77
2017-08-23T04:00:20.818Z,22.82
2017-08-23T04:02:48.321Z,22.78
2017-08-23T04:05:15.914Z,22.78
2017-08-23T04:07:43.444Z,22.87
2017-08-23T04:10:11.006Z,22.97
2017-08-23T04:12:38.509Z,22.99
2017-08-23T04:15:06.049Z,22.92
2017-08-23T04:17:33.602Z,22.94
2017-08-23T04:20:01.176Z,22.98
2017-08-23T04:22:28.761Z,23.02
2017-08-23T04:24:56.277Z,23.04
2017-08-23T04:27:23.906Z,23.05
2017-08-23T04:29:51.492Z,23.02
2017-08-23T04:32:19.072Z,23.10
2017-08-23T04:34:46.581Z,23.11
2017-08-23T04:37:14.121Z,23.11
2017-08-23T04:39:41.666Z,23.14
2017-08-23T04:42:09.219Z,23.17
2017-08-23T04:44:36.740Z,23.15
2017-08-23T04:47:04.240Z,23.15
2017-08-23T04:49:31.800Z,23.19
2017-08-23T04:51:59.338Z,23.21
2017-08-23T04:54:26.846Z,23.21
2017-08-23T04:56:54.415Z,23.21
2017-08-23T04:59:21.953Z,23.20
2017-08-23T05:01:49.482Z,23.16
2017-08-23T05:04:17.245Z,23.20
2017-08-23T05:06:44.745Z,23.19
2017-08-23T05:09:12.244Z,23.17
2017-08-23T05:11:39.774Z,23.22
2017-08-23T05:14:07.271Z,23.23
2017-08-23T05:16:34.817Z,23.24
2017-08-23T05:19:02.344Z,23.27
2017-08-23T05:21:29.849Z,23.28
2017-08-23T05:23:57.436Z,23.32
2017-08-23T05:26:25.025Z,23.30
2017-08-23T05:28:52.613Z,23.35
2017-08-23T05:31:20.321Z,23.34
2017-08-23T05:33:47.881Z,23.39
2017-08-23T05:36:15.558Z,23.38
2017-08-23T05:38:43.160Z,23.37
2017-08-23T05:41:10.834Z,23.43
2017-08-23T05:43:39.498Z,23.46
2017-08-23T05:46:25.930Z,23.47
2017-08-23T05:49:01.627Z,23.50
2017-08-23T05:51:29.580Z,23.51
2017-08-23T05:53:57.149Z,23.56
2017-08-23T05:56:25.210Z,23.57
2017-08-23T05:58:53.077Z,23.60
2017-08-23T06:01:29.033Z,23.63
2017-08-23T06:03:57.075Z,23.65
2017-08-23T06:18:43.923Z,23.75
2017-08-23T06:21:12.559Z,23.78
2017-08-23T06:23:40.173Z,23.82
2017-08-23T06:26:11.820Z,23.79
2017-08-23T06:28:41.197Z,23.86
2017-08-23T06:31:20.793Z,23.88
2017-08-23T06:33:50.696Z,23.93
2017-08-23T06:36:20.285Z,23.87
2017-08-23T06:38:48.495Z,23.98
2017-08-23T06:41:16.588Z,24.00
2017-08-23T06:43:44.405Z,24.01
2017-08-23T06:49:33.347Z,24.04
2017-08-23T06:55:04.135Z,24.12
2017-08-23T06:57:34.155Z,24.14
2017-08-23T07:00:01.755Z,24.08
2017-08-23T07:05:28.998Z,24.14
2017-08-23T07:07:59.897Z,24.16
2017-08-23T07:10:30.972Z,24.20
2017-08-23T07:12:58.920Z,24.25
2017-08-23T07:15:27.368Z,24.25
2017-08-23T07:17:55.197Z,24.30
2017-08-23T07:20:23.154Z,24.26
2017-08-23T07:22:50.984Z,24.30
2017-08-23T07:25:18.869Z,24.36
2017-08-23T07:27:46.526Z,24.31
2017-08-23T07:30:14.267Z,24.39
2017-08-23T07:32:41.881Z,24.36
2017-08-23T07:35:09.637Z,24.38
2017-08-23T07:37:37.274Z,24.45
2017-08-23T07:40:06.573Z,24.43
2017-08-23T07:42:34.274Z,24.42
2017-08-23T07:45:44.290Z,24.50
2017-08-23T07:51:13.115Z,24.50
2017-08-23T07:53:52.759Z,24.47
2017-08-23T07:56:21.144Z,24.47
2017-08-23T07:58:49.035Z,24.55
2017-08-23T08:01:17.343Z,24.53
2017-08-23T08:03:45.192Z,24.58
2017-08-23T08:06:14.442Z,24.53
2017-08-23T08:08:42.363Z,24.62
2017-08-23T08:11:11.054Z,24.59
2017-08-23T08:13:38.780Z,24.55
2017-08-23T08:16:07.277Z,24.64
2017-08-23T08:18:34.958Z,24.58
2017-08-23T08:21:02.596Z,24.65
2017-08-23T08:23:30.234Z,24.67
2017-08-23T08:25:57.910Z,24.65
2017-08-23T08:28:39.349Z,24.70
2017-08-23T08:31:07.101Z,24.69
2017-08-23T08:33:35.438Z,24.60
2017-08-23T08:36:04.387Z,24.66
2017-08-23T08:38:32.368Z,24.68
2017-08-23T08:41:04.386Z,24.58
2017-08-23T08:46:46.448Z,24.62
2017-08-23T08:49:56.118Z,24.57
2017-08-23T08:52:33.235Z,24.64
2017-08-23T08:55:13.964Z,24.61
2017-08-23T08:57:48.114Z,24.61
2017-08-23T09:00:17.853Z,24.61
2017-08-23T09:05:45.646Z,24.59
2017-08-23T09:08:15.578Z,24.56
2017-08-23T09:14:00.591Z,24.64
2017-08-23T09:16:32.306Z,24.53
2017-08-23T09:19:23.456Z,24.62
2017-08-23T10:06:43.780Z,24.65
2017-08-23T10:09:11.497Z,24.58
2017-08-23T10:11:39.199Z,24.62
2017-08-23T10:14:07.740Z,24.64
2017-08-23T10:16:37.964Z,24.63
2017-08-23T10:19:05.939Z,24.56
2017-08-23T10:21:33.780Z,24.63
2017-08-23T10:24:01.629Z,24.60
2017-08-23T10:26:29.176Z,24.67
2017-08-23T10:28:56.821Z,24.63
2017-08-23T10:31:24.411Z,24.65
2017-08-23T10:33:52.168Z,24.66
2017-08-23T10:36:19.915Z,24.61
2017-08-23T10:38:47.518Z,24.63
2017-08-23T10:41:18.204Z,24.70
2017-08-23T10:43:45.838Z,24.70
2017-08-23T10:46:23.469Z,24.70
2017-08-23T11:05:34.666Z,24.76
2017-08-23T11:08:26.753Z,24.73
2017-08-23T11:11:20.719Z,24.71
2017-08-23T11:13:54.810Z,24.72
2017-08-23T11:16:25.457Z,24.75
2017-08-23T11:18:53.159Z,24.67
2017-08-23T11:21:23.891Z,24.69
2017-08-23T11:23:51.907Z,24.67
2017-08-23T11:26:19.577Z,24.73
2017-08-23T11:28:49.243Z,24.78
2017-08-23T11:31:17.006Z,24.70
2017-08-23T11:33:44.567Z,24.71
2017-08-23T11:36:12.254Z,24.79
2017-08-23T11:38:39.837Z,24.77
2017-08-23T11:41:07.497Z,24.83
2017-08-23T11:43:35.775Z,24.83
2017-08-23T11:49:30.569Z,24.87
2017-08-23T12:08:38.287Z,24.87
2017-08-23T12:11:14.351Z,24.84
2017-08-23T12:40:27.964Z,24.94
2017-08-23T12:45:32.499Z,24.92
2017-08-23T12:48:02.807Z,24.95
2017-08-23T12:50:31.654Z,24.94
2017-08-23T12:53:01.329Z,25.00
2017-08-23T12:55:29.666Z,24.96
2017-08-23T13:14:39.514Z,25.00
2017-08-23T13:17:07.182Z,24.93
2017-08-23T13:19:34.874Z,25.00
2017-08-23T13:22:02.758Z,24.88
2017-08-23T13:24:30.486Z,24.95
2017-08-23T13:26:58.419Z,24.94
2017-08-23T13:29:26.474Z,24.97
2017-08-23T13:34:38.976Z,25.01
2017-08-23T13:37:06.622Z,24.99
2017-08-23T13:40:06.267Z,24.97
2017-08-23T13:43:04.963Z,24.89
2017-08-23T13:46:05.193Z,24.95
2017-08-23T13:49:03.146Z,25.01
2017-08-23T13:52:02.661Z,25.02
2017-08-23T13:54:38.104Z,24.98
2017-08-23T13:57:05.970Z,24.97
2017-08-23T13:59:33.857Z,24.94
2017-08-23T14:02:06.428Z,24.98
2017-08-23T14:04:34.485Z,24.99
2017-08-23T14:07:02.380Z,24.91
2017-08-23T14:09:32.085Z,24.99
2017-08-23T14:12:00.034Z,24.97
2017-08-23T14:14:29.621Z,24.93
2017-08-23T14:16:58.548Z,24.95
2017-08-23T14:19:26.326Z,24.97
2017-08-23T14:21:54.993Z,24.96
2017-08-23T14:24:25.911Z,24.98
2017-08-23T14:26:54.643Z,24.93
2017-08-23T14:29:36.104Z,24.97
2017-08-23T14:32:09.174Z,24.94
2017-08-23T14:37:37.308Z,24.83
2017-08-23T14:40:07.838Z,24.89
2017-08-23T14:42:38.464Z,24.86
2017-08-23T14:45:12.662Z,24.91
2017-08-23T14:47:46.868Z,24.93
2017-08-23T14:50:16.055Z,24.93
2017-08-23T14:52:45.157Z,24.93
2017-08-23T14:55:13.786Z,24.91
2017-08-23T14:57:44.462Z,24.95
2017-08-23T15:00:12.124Z,24.93
2017-08-23T15:02:40.015Z,24.97
2017-08-23T15:05:08.645Z,24.90
2017-08-23T15:07:37.005Z,24.86
2017-08-23T15:10:05.042Z,24.89
2017-08-23T15:12:33.751Z,24.84
2017-08-23T15:15:01.400Z,24.90
2017-08-23T15:17:29.055Z,24.89
2017-08-23T15:19:56.849Z,24.81
2017-08-23T15:22:25.201Z,24.87
2017-08-23T15:24:52.788Z,24.88
2017-08-23T15:27:20.354Z,24.86
2017-08-23T15:29:48.011Z,24.87
2017-08-23T15:32:15.900Z,24.81
2017-08-23T15:34:43.562Z,24.83
2017-08-23T15:37:11.264Z,24.79
2017-08-23T15:39:38.796Z,24.80
2017-08-23T15:42:06.396Z,24.74
2017-08-23T15:44:34.000Z,24.76
2017-08-23T15:47:01.676Z,24.71
2017-08-23T15:49:30.656Z,24.80
2017-08-23T15:51:59.217Z,24.77
2017-08-23T15:54:27.198Z,24.76
2017-08-23T15:56:55.171Z,24.72
2017-08-23T15:59:22.802Z,24.73
2017-08-23T16:01:50.380Z,24.72
2017-08-23T16:04:17.994Z,24.71
2017-08-23T16:06:45.559Z,24.71
2017-08-23T16:09:13.069Z,24.70
2017-08-23T16:11:40.688Z,24.70
2017-08-23T16:14:08.213Z,24.70
2017-08-23T16:16:35.858Z,24.69
2017-08-23T16:19:03.463Z,24.58
2017-08-23T16:21:30.966Z,24.58
2017-08-23T16:23:58.578Z,24.58
2017-08-23T16:26:26.122Z,24.62
2017-08-23T16:28:53.781Z,24.57
2017-08-23T16:31:21.333Z,24.60
2017-08-23T16:33:48.833Z,24.59
2017-08-23T16:36:16.384Z,24.59
2017-08-23T16:38:43.910Z,24.54
2017-08-23T16:41:11.469Z,24.57
2017-08-23T16:43:38.986Z,24.55
2017-08-23T16:46:06.509Z,24.54
2017-08-23T16:48:34.054Z,24.53
2017-08-23T16:51:01.586Z,24.45
2017-08-23T16:53:29.142Z,24.52
2017-08-23T16:55:56.653Z,24.50
2017-08-23T16:58:24.193Z,24.49
2017-08-23T17:00:51.757Z,24.48
2017-08-23T17:03:19.365Z,24.44
2017-08-23T17:05:46.878Z,24.42
2017-08-23T17:08:14.403Z,24.44
2017-08-23T17:10:41.988Z,24.49
2017-08-23T17:13:09.493Z,24.50
2017-08-23T17:15:37.007Z,24.51
2017-08-23T17:18:04.565Z,24.53
2017-08-23T17:20:32.068Z,24.55
2017-08-23T17:22:59.651Z,24.55
2017-08-23T17:25:27.230Z,24.58
2017-08-23T17:27:54.802Z,24.60
2017-08-23T17:30:22.393Z,24.62
2017-08-23T17:32:49.957Z,24.63
2017-08-23T17:35:17.531Z,24.62
2017-08-23T17:37:45.052Z,24.63
2017-08-23T17:40:12.591Z,24.65
2017-08-23T17:42:40.146Z,24.66
2017-08-23T17:45:07.658Z,24.67
2017-08-23T17:47:35.209Z,24.63
2017-08-23T17:50:02.718Z,24.67
2017-08-23T17:52:30.345Z,24.68
2017-08-23T17:54:57.849Z,24.61
2017-08-23T17:57:25.401Z,24.68
2017-08-23T17:59:53.020Z,24.70
2017-08-23T18:02:20.561Z,24.72
2017-08-23T18:04:48.119Z,24.72
2017-08-23T18:07:15.668Z,24.73
2017-08-23T18:09:43.193Z,24.73
2017-08-23T18:12:10.746Z,24.71
2017-08-23T18:14:38.260Z,24.69
2017-08-23T18:17:05.814Z,24.69
2017-08-23T18:19:33.329Z,24.70
2017-08-23T18:22:00.836Z,24.74
2017-08-23T18:24:28.423Z,24.75
2017-08-23T18:26:55.954Z,24.74
2017-08-23T18:29:23.501Z,24.76
2017-08-23T18:31:51.116Z,24.77
2017-08-23T18:34:18.645Z,24.71
2017-08-23T18:36:46.185Z,24.74
2017-08-23T18:39:13.725Z,24.76
2017-08-23T18:41:41.229Z,24.77
2017-08-23T18:44:08.779Z,24.77
2017-08-23T18:46:36.282Z,24.74
2017-08-23T18:49:03.972Z,24.75
2017-08-23T18:51:31.596Z,24.74
2017-08-23T18:53:59.118Z,24.74
2017-08-23T18:56:26.629Z,24.78
2017-08-23T18:58:54.180Z,24.77
2017-08-23T19:01:21.773Z,24.78
2017-08-23T19:03:49.339Z,24.75
2017-08-23T19:06:16.894Z,24.79
2017-08-23T19:08:44.397Z,24.75
2017-08-23T19:11:11.922Z,24.78
2017-08-23T19:13:39.488Z,24.76
2017-08-23T19:16:07.029Z,24.71
2017-08-23T19:18:34.534Z,24.71
2017-08-23T19:21:02.098Z,24.65
2017-08-23T19:23:29.609Z,24.62
2017-08-23T19:25:57.198Z,24.58
2017-08-23T19:28:24.702Z,24.50
2017-08-23T19:30:52.259Z,24.48
2017-08-23T19:33:19.822Z,24.43
2017-08-23T19:35:47.376Z,24.40
2017-08-23T19:38:14.913Z,24.35
2017-08-23T19:40:42.497Z,24.31
2017-08-23T19:43:10.038Z,24.24
2017-08-23T19:45:37.588Z,24.25
2017-08-23T19:48:05.177Z,24.20
2017-08-23T19:50:32.691Z,24.16
2017-08-23T19:53:00.217Z,24.07
2017-08-23T19:55:27.760Z,24.04
2017-08-23T19:57:55.346Z,24.06
2017-08-23T20:00:22.877Z,23.93
2017-08-23T20:02:50.418Z,23.94
2017-08-23T20:05:17.965Z,23.95
2017-08-23T20:07:45.475Z,23.94
2017-08-23T20:10:13.097Z,23.92
2017-08-23T20:12:40.638Z,23.83
2017-08-23T20:15:08.141Z,23.86
2017-08-23T20:17:35.717Z,23.83
2017-08-23T20:20:03.247Z,23.76
2017-08-23T20:22:30.762Z,23.80
2017-08-23T20:24:58.338Z,23.77
2017-08-23T20:27:26.045Z,23.71
2017-08-23T20:29:53.675Z,23.73
2017-08-23T20:32:21.254Z,23.73
2017-08-23T20:34:48.797Z,23.67
2017-08-23T20:37:16.365Z,23.67
2017-08-23T20:39:43.901Z,23.65
2017-08-23T20:42:11.445Z,23.62
2017-08-23T20:44:38.995Z,23.60
2017-08-23T20:47:06.515Z,23.57
2017-08-23T20:49:34.074Z,23.55
2017-08-23T20:52:01.608Z,23.51
2017-08-23T20:54:29.165Z,23.52
2017-08-23T20:56:56.812Z,23.50
2017-08-23T20:59:25.368Z,23.44
2017-08-23T21:01:53.029Z,23.47
2017-08-23T21:04:20.699Z,23.41
2017-08-23T21:06:48.209Z,23.39
2017-08-23T21:09:15.930Z,23.41
2017-08-23T21:11:43.479Z,23.39
2017-08-23T21:14:11.058Z,23.36
2017-08-23T21:16:38.632Z,23.36
2017-08-23T21:19:06.233Z,23.33
2017-08-23T21:21:33.826Z,23.33
2017-08-23T21:24:01.754Z,23.26
2017-08-23T21:26:29.357Z,23.31
2017-08-23T21:28:56.938Z,23.20
2017-08-23T21:31:24.522Z,23.21
2017-08-23T21:33:52.165Z,23.25
2017-08-23T21:36:19.767Z,23.19
2017-08-23T21:38:47.443Z,23.19
2017-08-23T21:41:14.941Z,23.19
2017-08-23T21:43:42.493Z,23.16
2017-08-23T21:46:10.110Z,23.18
2017-08-23T21:48:37.650Z,23.13
2017-08-23T21:51:05.240Z,23.13
2017-08-23T21:53:32.761Z,23.13
2017-08-23T21:56:00.338Z,23.01
2017-08-23T21:58:27.937Z,23.10
2017-08-23T22:00:55.533Z,23.06
2017-08-23T22:03:23.201Z,22.99
2017-08-23T22:05:50.782Z,23.05
2017-08-23T22:08:18.486Z,23.03
2017-08-23T22:10:46.491Z,23.04
2017-08-23T22:13:14.019Z,22.99
2017-08-23T22:15:41.530Z,22.92
2017-08-23T22:18:09.109Z,22.97
2017-08-23T22:20:36.651Z,22.95
2017-08-23T22:23:04.157Z,22.95
2017-08-23T22:25:31.790Z,22.94
2017-08-23T22:27:59.297Z,22.92
2017-08-23T22:30:26.860Z,22.88
2017-08-23T22:32:54.421Z,22.89
2017-08-23T22:35:21.965Z,22.84
2017-08-23T22:37:49.464Z,22.88
2017-08-23T22:40:16.997Z,22.86
2017-08-23T22:42:44.574Z,22.83
2017-08-23T22:45:12.081Z,22.84
2017-08-23T22:47:39.645Z,22.83
2017-08-23T22:50:07.207Z,22.79
2017-08-23T22:52:34.797Z,22.77
2017-08-23T22:55:02.303Z,22.75
2017-08-23T22:57:29.809Z,22.75
2017-08-23T22:59:57.354Z,22.71
2017-08-23T23:02:25.007Z,22.71
2017-08-23T23:04:52.567Z,22.69
2017-08-23T23:07:20.107Z,22.69
2017-08-23T23:09:47.652Z,22.68
2017-08-23T23:12:15.300Z,22.67
2017-08-23T23:14:42.849Z,22.67
2017-08-23T23:17:10.425Z,22.66
2017-08-23T23:19:37.963Z,22.64
2017-08-23T23:22:05.482Z,22.63
2017-08-23T23:24:33.016Z,22.61
2017-08-23T23:27:00.575Z,22.60
2017-08-23T23:29:28.130Z,22.60
2017-08-23T23:31:55.651Z,22.58
2017-08-23T23:34:23.580Z,22.55
2017-08-23T23:36:51.146Z,22.53
2017-08-23T23:39:18.684Z,22.52
2017-08-23T23:41:46.206Z,22.53
2017-08-23T23:44:13.765Z,22.54
2017-08-23T23:46:41.315Z,22.51
2017-08-23T23:49:08.855Z,22.49
2017-08-23T23:51:36.493Z,22.48
2017-08-23T23:54:04.027Z,22.43
2017-08-23T23:56:31.573Z,22.47
2017-08-23T23:58:59.125Z,22.43
